sensor_id;sensor_type;location;lat;lon;timestamp;temperature;humidity
7317;DHT22;3699;51.462;6.696;2023-03-07T00:01:27;5.70;99.90
7317;DHT22;3699;51.462;6.696;2023-03-07T00:03:54;5.70;99.90
7317;DHT22;3699;51.462;6.696;2023-03-07T00:06:23;5.60;99.90
7317;DHT22;3699;51.462;6.696;2023-03-07T00:08:51;5.70;99.90
7317;DHT22;3699;51.462;6.696;2023-03-07T00:11:19;5.70;99.90
7317;DHT22;3699;51.462;6.696;2023-03-07T00:13:46;5.70;99.90
7317;DHT22;3699;51.462;6.696;2023-03-07T00:16:15;5.70;99.90
7317;DHT22;3699;51.462;6.696;2023-03-07T00:18:42;5.80;99.90
7317;DHT22;3699;51.462;6.696;2023-03-07T00:21:10;5.70;99.90
7317;DHT22;3699;51.462;6.696;2023-03-07T00:23:41;5.80;99.90
7317;DHT22;3699;51.462;6.696;2023-03-07T00:26:11;5.80;99.90
7317;DHT22;3699;51.462;6.696;2023-03-07T00:28:38;5.80;99.90
7317;DHT22;3699;51.462;6.696;2023-03-07T00:31:06;5.80;99.90
7317;DHT22;3699;51.462;6.696;2023-03-07T00:33:34;5.80;99.90
7317;DHT22;3699;51.462;6.696;2023-03-07T00:36:02;5.80;99.90
7317;DHT22;3699;51.462;6.696;2023-03-07T00:38:30;5.80;99.90
7317;DHT22;3699;51.462;6.696;2023-03-07T00:41:00;5.80;99.90
7317;DHT22;3699;51.462;6.696;2023-03-07T00:43:27;5.80;99.90
7317;DHT22;3699;51.462;6.696;2023-03-07T00:45:54;5.80;99.90
7317;DHT22;3699;51.462;6.696;2023-03-07T00:48:22;5.80;99.90
7317;DHT22;3699;51.462;6.696;2023-03-07T00:50:49;5.80;99.90
7317;DHT22;3699;51.462;6.696;2023-03-07T00:53:16;5.80;99.90
7317;DHT22;3699;51.462;6.696;2023-03-07T00:55:55;5.80;99.90
7317;DHT22;3699;51.462;6.696;2023-03-07T00:58:24;5.80;99.90
7317;DHT22;3699;51.462;6.696;2023-03-07T01:00:51;5.80;99.90
7317;DHT22;3699;51.462;6.696;2023-03-07T01:03:18;5.80;99.90
7317;DHT22;3699;51.462;6.696;2023-03-07T01:05:45;5.80;99.90
7317;DHT22;3699;51.462;6.696;2023-03-07T01:08:12;5.80;99.90
7317;DHT22;3699;51.462;6.696;2023-03-07T01:10:40;5.80;99.90
7317;DHT22;3699;51.462;6.696;2023-03-07T01:13:07;5.80;99.90
7317;DHT22;3699;51.462;6.696;2023-03-07T01:15:37;5.80;99.90
7317;DHT22;3699;51.462;6.696;2023-03-07T01:18:05;5.80;99.90
7317;DHT22;3699;51.462;6.696;2023-03-07T01:20:32;5.80;99.90
7317;DHT22;3699;51.462;6.696;2023-03-07T01:22:59;5.80;99.90
7317;DHT22;3699;51.462;6.696;2023-03-07T01:25:26;5.80;99.90
7317;DHT22;3699;51.462;6.696;2023-03-07T01:27:53;5.80;99.90
7317;DHT22;3699;51.462;6.696;2023-03-07T01:30:21;5.80;99.90
7317;DHT22;3699;51.462;6.696;2023-03-07T01:32:53;5.80;99.90
7317;DHT22;3699;51.462;6.696;2023-03-07T01:35:20;5.80;99.90
7317;DHT22;3699;51.462;6.696;2023-03-07T01:37:47;5.80;99.90
7317;DHT22;3699;51.462;6.696;2023-03-07T01:40:14;5.80;99.90
7317;DHT22;3699;51.462;6.696;2023-03-07T01:42:41;5.80;99.90
7317;DHT22;3699;51.462;6.696;2023-03-07T01:48:14;5.70;99.90
7317;DHT22;3699;51.462;6.696;2023-03-07T01:50:41;5.80;99.90
7317;DHT22;3699;51.462;6.696;2023-03-07T01:53:09;5.80;99.90
7317;DHT22;3699;51.462;6.696;2023-03-07T01:55:36;5.80;99.90
7317;DHT22;3699;51.462;6.696;2023-03-07T01:58:05;5.70;99.90
7317;DHT22;3699;51.462;6.696;2023-03-07T02:00:34;5.60;99.90
7317;DHT22;3699;51.462;6.696;2023-03-07T02:03:07;5.70;99.90
7317;DHT22;3699;51.462;6.696;2023-03-07T02:05:39;5.80;99.90
7317;DHT22;3699;51.462;6.696;2023-03-07T02:08:08;5.60;99.90
7317;DHT22;3699;51.462;6.696;2023-03-07T02:10:37;5.60;99.90
7317;DHT22;3699;51.462;6.696;2023-03-07T02:13:05;5.60;99.90
7317;DHT22;3699;51.462;6.696;2023-03-07T02:15:33;5.50;99.90
7317;DHT22;3699;51.462;6.696;2023-03-07T02:18:01;5.50;99.90
7317;DHT22;3699;51.462;6.696;2023-03-07T02:20:35;5.50;99.90
7317;DHT22;3699;51.462;6.696;2023-03-07T02:23:06;5.60;99.90
7317;DHT22;3699;51.462;6.696;2023-03-07T02:25:42;5.60;99.90
7317;DHT22;3699;51.462;6.696;2023-03-07T02:28:13;5.50;99.90
7317;DHT22;3699;51.462;6.696;2023-03-07T02:30:52;5.50;99.90
7317;DHT22;3699;51.462;6.696;2023-03-07T02:33:19;5.50;99.90
7317;DHT22;3699;51.462;6.696;2023-03-07T02:35:51;5.50;99.90
7317;DHT22;3699;51.462;6.696;2023-03-07T02:38:18;5.50;99.90
7317;DHT22;3699;51.462;6.696;2023-03-07T02:40:46;5.50;99.90
7317;DHT22;3699;51.462;6.696;2023-03-07T02:43:14;5.50;99.90
7317;DHT22;3699;51.462;6.696;2023-03-07T02:45:41;5.50;99.90
7317;DHT22;3699;51.462;6.696;2023-03-07T02:48:08;5.60;99.90
7317;DHT22;3699;51.462;6.696;2023-03-07T02:50:35;5.60;99.90
7317;DHT22;3699;51.462;6.696;2023-03-07T02:53:02;5.50;99.90
7317;DHT22;3699;51.462;6.696;2023-03-07T02:55:29;5.60;99.90
7317;DHT22;3699;51.462;6.696;2023-03-07T02:57:55;5.70;99.90
7317;DHT22;3699;51.462;6.696;2023-03-07T03:00:24;5.60;99.90
7317;DHT22;3699;51.462;6.696;2023-03-07T03:02:51;5.60;99.90
7317;DHT22;3699;51.462;6.696;2023-03-07T03:05:17;5.60;99.90
7317;DHT22;3699;51.462;6.696;2023-03-07T03:07:44;5.60;99.90
7317;DHT22;3699;51.462;6.696;2023-03-07T03:10:11;5.60;99.90
7317;DHT22;3699;51.462;6.696;2023-03-07T03:12:38;5.60;99.90
7317;DHT22;3699;51.462;6.696;2023-03-07T03:15:06;5.60;99.90
7317;DHT22;3699;51.462;6.696;2023-03-07T03:17:34;5.70;99.90
7317;DHT22;3699;51.462;6.696;2023-03-07T03:20:01;5.60;99.90
7317;DHT22;3699;51.462;6.696;2023-03-07T03:22:29;5.50;99.90
7317;DHT22;3699;51.462;6.696;2023-03-07T03:24:57;5.50;99.90
7317;DHT22;3699;51.462;6.696;2023-03-07T03:27:24;5.50;99.90
7317;DHT22;3699;51.462;6.696;2023-03-07T03:29:52;5.50;99.90
7317;DHT22;3699;51.462;6.696;2023-03-07T03:32:19;5.50;99.90
7317;DHT22;3699;51.462;6.696;2023-03-07T03:34:47;5.50;99.90
7317;DHT22;3699;51.462;6.696;2023-03-07T03:37:14;5.60;99.90
7317;DHT22;3699;51.462;6.696;2023-03-07T03:39:41;5.50;99.90
7317;DHT22;3699;51.462;6.696;2023-03-07T03:42:07;5.50;99.90
7317;DHT22;3699;51.462;6.696;2023-03-07T03:44:34;5.50;99.90
7317;DHT22;3699;51.462;6.696;2023-03-07T03:47:01;5.50;99.90
7317;DHT22;3699;51.462;6.696;2023-03-07T03:49:28;5.50;99.90
7317;DHT22;3699;51.462;6.696;2023-03-07T03:51:57;5.50;99.90
7317;DHT22;3699;51.462;6.696;2023-03-07T03:54:24;5.40;99.90
7317;DHT22;3699;51.462;6.696;2023-03-07T03:56:52;5.40;99.90
7317;DHT22;3699;51.462;6.696;2023-03-07T03:59:19;5.40;99.90
7317;DHT22;3699;51.462;6.696;2023-03-07T04:01:46;5.40;99.90
7317;DHT22;3699;51.462;6.696;2023-03-07T04:04:13;5.40;99.90
7317;DHT22;3699;51.462;6.696;2023-03-07T04:06:40;5.40;99.90
7317;DHT22;3699;51.462;6.696;2023-03-07T04:09:09;5.40;99.90
7317;DHT22;3699;51.462;6.696;2023-03-07T04:11:36;5.40;99.90
7317;DHT22;3699;51.462;6.696;2023-03-07T04:14:02;5.40;99.90
7317;DHT22;3699;51.462;6.696;2023-03-07T04:16:29;6.70;99.90
7317;DHT22;3699;51.462;6.696;2023-03-07T04:18:56;5.50;99.90
7317;DHT22;3699;51.462;6.696;2023-03-07T04:21:23;5.50;99.90
7317;DHT22;3699;51.462;6.696;2023-03-07T04:23:50;5.50;99.90
7317;DHT22;3699;51.462;6.696;2023-03-07T04:26:21;5.50;99.90
7317;DHT22;3699;51.462;6.696;2023-03-07T04:28:48;5.50;99.90
7317;DHT22;3699;51.462;6.696;2023-03-07T04:31:16;5.50;99.90
7317;DHT22;3699;51.462;6.696;2023-03-07T04:33:43;5.50;99.90
7317;DHT22;3699;51.462;6.696;2023-03-07T04:36:11;5.50;99.90
7317;DHT22;3699;51.462;6.696;2023-03-07T04:38:38;5.50;99.90
7317;DHT22;3699;51.462;6.696;2023-03-07T04:41:07;5.60;99.90
7317;DHT22;3699;51.462;6.696;2023-03-07T04:43:35;5.60;99.90
7317;DHT22;3699;51.462;6.696;2023-03-07T04:46:02;5.60;99.90
7317;DHT22;3699;51.462;6.696;2023-03-07T04:48:28;5.50;99.90
7317;DHT22;3699;51.462;6.696;2023-03-07T04:50:55;5.60;99.90
7317;DHT22;3699;51.462;6.696;2023-03-07T04:53:22;5.60;99.90
7317;DHT22;3699;51.462;6.696;2023-03-07T04:55:48;5.60;99.90
7317;DHT22;3699;51.462;6.696;2023-03-07T04:58:15;5.60;99.90
7317;DHT22;3699;51.462;6.696;2023-03-07T05:00:44;5.60;99.90
7317;DHT22;3699;51.462;6.696;2023-03-07T05:03:12;5.60;99.90
7317;DHT22;3699;51.462;6.696;2023-03-07T05:05:39;5.60;99.90
7317;DHT22;3699;51.462;6.696;2023-03-07T05:08:06;5.60;99.90
7317;DHT22;3699;51.462;6.696;2023-03-07T05:10:33;5.70;99.90
7317;DHT22;3699;51.462;6.696;2023-03-07T05:13:01;5.60;99.90
7317;DHT22;3699;51.462;6.696;2023-03-07T05:15:27;5.70;99.90
7317;DHT22;3699;51.462;6.696;2023-03-07T05:17:55;5.60;99.90
7317;DHT22;3699;51.462;6.696;2023-03-07T05:20:22;5.70;99.90
7317;DHT22;3699;51.462;6.696;2023-03-07T05:22:49;5.60;99.90
7317;DHT22;3699;51.462;6.696;2023-03-07T05:25:16;5.70;99.90
7317;DHT22;3699;51.462;6.696;2023-03-07T05:27:43;5.70;99.90
7317;DHT22;3699;51.462;6.696;2023-03-07T05:30:10;5.70;99.90
7317;DHT22;3699;51.462;6.696;2023-03-07T05:32:37;5.60;99.90
7317;DHT22;3699;51.462;6.696;2023-03-07T05:35:08;5.60;99.90
7317;DHT22;3699;51.462;6.696;2023-03-07T05:37:35;5.60;99.90
7317;DHT22;3699;51.462;6.696;2023-03-07T05:40:02;5.60;99.90
7317;DHT22;3699;51.462;6.696;2023-03-07T05:42:33;5.60;99.90
7317;DHT22;3699;51.462;6.696;2023-03-07T05:45:00;5.60;99.90
7317;DHT22;3699;51.462;6.696;2023-03-07T05:47:26;5.60;99.90
7317;DHT22;3699;51.462;6.696;2023-03-07T05:49:53;5.60;99.90
7317;DHT22;3699;51.462;6.696;2023-03-07T05:52:21;5.60;99.90
7317;DHT22;3699;51.462;6.696;2023-03-07T05:54:48;5.60;99.90
7317;DHT22;3699;51.462;6.696;2023-03-07T05:57:14;5.60;99.90
7317;DHT22;3699;51.462;6.696;2023-03-07T05:59:41;5.60;99.90
7317;DHT22;3699;51.462;6.696;2023-03-07T06:02:08;5.60;99.90
7317;DHT22;3699;51.462;6.696;2023-03-07T06:04:35;5.70;99.90
7317;DHT22;3699;51.462;6.696;2023-03-07T06:07:01;5.60;99.90
7317;DHT22;3699;51.462;6.696;2023-03-07T06:09:29;5.60;99.90
7317;DHT22;3699;51.462;6.696;2023-03-07T06:11:56;5.60;99.90
7317;DHT22;3699;51.462;6.696;2023-03-07T06:14:23;5.50;99.90
7317;DHT22;3699;51.462;6.696;2023-03-07T06:16:50;5.50;99.90
7317;DHT22;3699;51.462;6.696;2023-03-07T06:19:16;5.50;99.90
7317;DHT22;3699;51.462;6.696;2023-03-07T06:21:43;5.50;99.90
7317;DHT22;3699;51.462;6.696;2023-03-07T06:24:10;5.60;99.90
7317;DHT22;3699;51.462;6.696;2023-03-07T06:26:38;5.60;99.90
7317;DHT22;3699;51.462;6.696;2023-03-07T06:29:05;5.60;99.90
7317;DHT22;3699;51.462;6.696;2023-03-07T06:31:32;5.60;99.90
7317;DHT22;3699;51.462;6.696;2023-03-07T06:33:58;5.60;99.90
7317;DHT22;3699;51.462;6.696;2023-03-07T06:36:25;5.60;99.90
7317;DHT22;3699;51.462;6.696;2023-03-07T06:38:52;5.60;99.90
7317;DHT22;3699;51.462;6.696;2023-03-07T06:41:19;5.60;99.90
7317;DHT22;3699;51.462;6.696;2023-03-07T06:43:50;5.60;99.90
7317;DHT22;3699;51.462;6.696;2023-03-07T06:46:17;5.60;99.90
7317;DHT22;3699;51.462;6.696;2023-03-07T06:48:45;5.60;99.90
7317;DHT22;3699;51.462;6.696;2023-03-07T06:51:12;5.60;99.90
7317;DHT22;3699;51.462;6.696;2023-03-07T06:53:38;5.60;99.90
7317;DHT22;3699;51.462;6.696;2023-03-07T06:56:05;5.60;99.90
7317;DHT22;3699;51.462;6.696;2023-03-07T06:58:32;5.60;99.90
7317;DHT22;3699;51.462;6.696;2023-03-07T07:01:00;5.60;99.90
7317;DHT22;3699;51.462;6.696;2023-03-07T07:03:27;5.70;99.90
7317;DHT22;3699;51.462;6.696;2023-03-07T07:05:54;5.60;99.90
7317;DHT22;3699;51.462;6.696;2023-03-07T07:08:21;5.60;99.90
7317;DHT22;3699;51.462;6.696;2023-03-07T07:10:47;5.70;99.90
7317;DHT22;3699;51.462;6.696;2023-03-07T07:13:14;5.70;99.90
7317;DHT22;3699;51.462;6.696;2023-03-07T07:15:41;5.70;99.90
7317;DHT22;3699;51.462;6.696;2023-03-07T07:18:11;5.70;99.90
7317;DHT22;3699;51.462;6.696;2023-03-07T07:20:38;5.70;99.90
7317;DHT22;3699;51.462;6.696;2023-03-07T07:23:04;5.70;99.90
7317;DHT22;3699;51.462;6.696;2023-03-07T07:25:31;5.70;99.90
7317;DHT22;3699;51.462;6.696;2023-03-07T07:27:58;5.80;99.90
7317;DHT22;3699;51.462;6.696;2023-03-07T07:30:25;5.80;99.90
7317;DHT22;3699;51.462;6.696;2023-03-07T07:32:51;5.80;99.90
7317;DHT22;3699;51.462;6.696;2023-03-07T07:35:19;5.80;99.90
7317;DHT22;3699;51.462;6.696;2023-03-07T07:37:46;5.80;99.90
7317;DHT22;3699;51.462;6.696;2023-03-07T07:40:13;5.80;99.90
7317;DHT22;3699;51.462;6.696;2023-03-07T07:42:40;5.80;99.90
7317;DHT22;3699;51.462;6.696;2023-03-07T07:45:08;5.90;99.90
7317;DHT22;3699;51.462;6.696;2023-03-07T07:47:35;5.90;99.90
7317;DHT22;3699;51.462;6.696;2023-03-07T07:52:30;5.90;99.90
7317;DHT22;3699;51.462;6.696;2023-03-07T07:54:56;5.90;99.90
7317;DHT22;3699;51.462;6.696;2023-03-07T07:57:23;5.80;99.90
7317;DHT22;3699;51.462;6.696;2023-03-07T07:59:50;5.90;99.90
7317;DHT22;3699;51.462;6.696;2023-03-07T08:02:16;5.90;99.90
7317;DHT22;3699;51.462;6.696;2023-03-07T08:04:43;5.90;99.90
7317;DHT22;3699;51.462;6.696;2023-03-07T08:07:11;5.90;99.90
7317;DHT22;3699;51.462;6.696;2023-03-07T08:09:40;5.90;99.90
7317;DHT22;3699;51.462;6.696;2023-03-07T08:12:09;5.90;99.90
7317;DHT22;3699;51.462;6.696;2023-03-07T08:14:36;6.00;99.90
7317;DHT22;3699;51.462;6.696;2023-03-07T08:17:03;6.00;99.90
7317;DHT22;3699;51.462;6.696;2023-03-07T08:19:30;6.00;99.90
7317;DHT22;3699;51.462;6.696;2023-03-07T08:21:57;6.00;99.90
7317;DHT22;3699;51.462;6.696;2023-03-07T08:24:24;6.00;99.90
7317;DHT22;3699;51.462;6.696;2023-03-07T08:26:52;5.90;99.90
7317;DHT22;3699;51.462;6.696;2023-03-07T08:29:19;5.90;99.90
7317;DHT22;3699;51.462;6.696;2023-03-07T08:31:46;5.80;99.90
7317;DHT22;3699;51.462;6.696;2023-03-07T08:34:15;5.80;99.90
7317;DHT22;3699;51.462;6.696;2023-03-07T08:36:42;5.70;99.90
7317;DHT22;3699;51.462;6.696;2023-03-07T08:39:09;5.60;99.90
7317;DHT22;3699;51.462;6.696;2023-03-07T08:41:37;5.60;99.90
7317;DHT22;3699;51.462;6.696;2023-03-07T08:44:05;5.50;99.90
7317;DHT22;3699;51.462;6.696;2023-03-07T08:46:31;5.50;99.90
7317;DHT22;3699;51.462;6.696;2023-03-07T08:48:58;5.50;99.90
7317;DHT22;3699;51.462;6.696;2023-03-07T08:51:25;5.50;99.90
7317;DHT22;3699;51.462;6.696;2023-03-07T08:53:52;5.50;99.90
7317;DHT22;3699;51.462;6.696;2023-03-07T08:56:19;5.40;99.90
7317;DHT22;3699;51.462;6.696;2023-03-07T08:58:46;5.50;99.90
7317;DHT22;3699;51.462;6.696;2023-03-07T09:01:14;5.50;99.90
7317;DHT22;3699;51.462;6.696;2023-03-07T09:03:41;5.50;99.90
7317;DHT22;3699;51.462;6.696;2023-03-07T09:06:15;5.50;99.90
7317;DHT22;3699;51.462;6.696;2023-03-07T09:08:42;5.40;99.90
7317;DHT22;3699;51.462;6.696;2023-03-07T09:11:09;5.40;99.90
7317;DHT22;3699;51.462;6.696;2023-03-07T09:13:36;5.40;99.90
7317;DHT22;3699;51.462;6.696;2023-03-07T09:16:04;5.30;99.90
7317;DHT22;3699;51.462;6.696;2023-03-07T09:18:32;5.30;99.90
7317;DHT22;3699;51.462;6.696;2023-03-07T09:20:59;5.30;99.90
7317;DHT22;3699;51.462;6.696;2023-03-07T09:23:26;5.30;99.90
7317;DHT22;3699;51.462;6.696;2023-03-07T09:25:53;5.30;99.90
7317;DHT22;3699;51.462;6.696;2023-03-07T09:28:20;5.30;99.90
7317;DHT22;3699;51.462;6.696;2023-03-07T09:30:47;5.30;99.90
7317;DHT22;3699;51.462;6.696;2023-03-07T09:33:14;5.30;99.90
7317;DHT22;3699;51.462;6.696;2023-03-07T09:35:42;5.20;99.90
7317;DHT22;3699;51.462;6.696;2023-03-07T09:38:09;5.30;99.90
7317;DHT22;3699;51.462;6.696;2023-03-07T09:40:36;5.30;99.90
7317;DHT22;3699;51.462;6.696;2023-03-07T09:43:09;5.30;99.90
7317;DHT22;3699;51.462;6.696;2023-03-07T09:45:46;5.30;99.90
7317;DHT22;3699;51.462;6.696;2023-03-07T09:51:24;5.20;99.90
7317;DHT22;3699;51.462;6.696;2023-03-07T09:53:54;5.50;99.90
7317;DHT22;3699;51.462;6.696;2023-03-07T09:56:24;5.40;99.90
7317;DHT22;3699;51.462;6.696;2023-03-07T09:58:59;5.50;99.90
7317;DHT22;3699;51.462;6.696;2023-03-07T10:01:29;5.50;99.90
7317;DHT22;3699;51.462;6.696;2023-03-07T10:04:00;5.50;99.90
7317;DHT22;3699;51.462;6.696;2023-03-07T10:06:32;5.60;99.90
7317;DHT22;3699;51.462;6.696;2023-03-07T10:09:00;5.60;99.90
7317;DHT22;3699;51.462;6.696;2023-03-07T10:11:44;5.70;99.90
7317;DHT22;3699;51.462;6.696;2023-03-07T10:14:21;5.80;99.90
7317;DHT22;3699;51.462;6.696;2023-03-07T10:16:57;5.90;99.90
7317;DHT22;3699;51.462;6.696;2023-03-07T10:19:32;5.90;99.90
7317;DHT22;3699;51.462;6.696;2023-03-07T10:22:10;5.90;99.90
7317;DHT22;3699;51.462;6.696;2023-03-07T10:25:03;5.90;99.90
7317;DHT22;3699;51.462;6.696;2023-03-07T10:27:30;5.90;99.90
7317;DHT22;3699;51.462;6.696;2023-03-07T10:29:59;5.90;99.90
7317;DHT22;3699;51.462;6.696;2023-03-07T10:32:31;5.90;99.90
7317;DHT22;3699;51.462;6.696;2023-03-07T10:35:14;5.80;99.90
7317;DHT22;3699;51.462;6.696;2023-03-07T10:37:46;5.80;99.90
7317;DHT22;3699;51.462;6.696;2023-03-07T10:40:25;5.90;99.90
7317;DHT22;3699;51.462;6.696;2023-03-07T10:42:52;5.80;99.90
7317;DHT22;3699;51.462;6.696;2023-03-07T10:45:20;5.90;99.90
7317;DHT22;3699;51.462;6.696;2023-03-07T10:47:46;5.90;99.90
7317;DHT22;3699;51.462;6.696;2023-03-07T10:50:23;5.90;99.90
7317;DHT22;3699;51.462;6.696;2023-03-07T10:52:54;5.90;99.90
7317;DHT22;3699;51.462;6.696;2023-03-07T10:55:40;5.90;99.90
7317;DHT22;3699;51.462;6.696;2023-03-07T10:58:22;5.90;99.90
7317;DHT22;3699;51.462;6.696;2023-03-07T11:01:01;5.90;99.90
7317;DHT22;3699;51.462;6.696;2023-03-07T11:03:31;5.90;99.90
7317;DHT22;3699;51.462;6.696;2023-03-07T11:05:59;5.90;99.90
7317;DHT22;3699;51.462;6.696;2023-03-07T11:08:30;5.90;99.90
7317;DHT22;3699;51.462;6.696;2023-03-07T11:10:58;5.90;99.90
7317;DHT22;3699;51.462;6.696;2023-03-07T11:13:25;5.90;99.90
7317;DHT22;3699;51.462;6.696;2023-03-07T11:16:08;5.90;99.90
7317;DHT22;3699;51.462;6.696;2023-03-07T11:18:38;5.90;99.90
7317;DHT22;3699;51.462;6.696;2023-03-07T11:21:05;5.80;99.90
7317;DHT22;3699;51.462;6.696;2023-03-07T11:23:33;5.90;99.90
7317;DHT22;3699;51.462;6.696;2023-03-07T11:26:14;5.90;99.90
7317;DHT22;3699;51.462;6.696;2023-03-07T11:28:41;5.90;99.90
7317;DHT22;3699;51.462;6.696;2023-03-07T11:31:14;5.80;99.90
7317;DHT22;3699;51.462;6.696;2023-03-07T11:33:49;5.80;99.90
7317;DHT22;3699;51.462;6.696;2023-03-07T11:36:20;5.70;99.90
7317;DHT22;3699;51.462;6.696;2023-03-07T11:38:56;5.70;99.90
7317;DHT22;3699;51.462;6.696;2023-03-07T11:41:27;5.70;99.90
7317;DHT22;3699;51.462;6.696;2023-03-07T11:44:14;5.60;99.90
7317;DHT22;3699;51.462;6.696;2023-03-07T11:47:02;5.60;99.90
7317;DHT22;3699;51.462;6.696;2023-03-07T11:49:43;5.60;99.90
7317;DHT22;3699;51.462;6.696;2023-03-07T11:52:29;5.60;99.90
7317;DHT22;3699;51.462;6.696;2023-03-07T11:55:14;5.50;99.90
7317;DHT22;3699;51.462;6.696;2023-03-07T11:57:52;5.60;99.90
7317;DHT22;3699;51.462;6.696;2023-03-07T12:00:29;5.60;99.90
7317;DHT22;3699;51.462;6.696;2023-03-07T12:03:19;5.60;99.90
7317;DHT22;3699;51.462;6.696;2023-03-07T12:06:00;5.70;99.90
7317;DHT22;3699;51.462;6.696;2023-03-07T12:08:39;5.70;99.90
7317;DHT22;3699;51.462;6.696;2023-03-07T12:11:23;5.70;99.90
7317;DHT22;3699;51.462;6.696;2023-03-07T12:14:00;5.60;99.90
7317;DHT22;3699;51.462;6.696;2023-03-07T12:16:41;5.70;99.90
7317;DHT22;3699;51.462;6.696;2023-03-07T12:19:19;5.60;99.90
7317;DHT22;3699;51.462;6.696;2023-03-07T12:22:18;5.60;99.90
7317;DHT22;3699;51.462;6.696;2023-03-07T12:25:01;5.50;99.90
7317;DHT22;3699;51.462;6.696;2023-03-07T12:27:33;5.50;99.90
7317;DHT22;3699;51.462;6.696;2023-03-07T12:30:05;5.50;99.90
7317;DHT22;3699;51.462;6.696;2023-03-07T12:32:38;5.50;99.90
7317;DHT22;3699;51.462;6.696;2023-03-07T12:35:09;5.50;99.90
7317;DHT22;3699;51.462;6.696;2023-03-07T12:37:45;5.50;99.90
7317;DHT22;3699;51.462;6.696;2023-03-07T12:40:17;5.50;99.90
7317;DHT22;3699;51.462;6.696;2023-03-07T12:42:53;5.50;99.90
7317;DHT22;3699;51.462;6.696;2023-03-07T12:45:23;5.40;99.90
7317;DHT22;3699;51.462;6.696;2023-03-07T12:47:56;5.50;99.90
7317;DHT22;3699;51.462;6.696;2023-03-07T12:50:28;5.40;99.90
7317;DHT22;3699;51.462;6.696;2023-03-07T12:52:59;5.40;99.90
7317;DHT22;3699;51.462;6.696;2023-03-07T12:55:33;5.50;99.90
7317;DHT22;3699;51.462;6.696;2023-03-07T12:58:08;5.50;99.90
7317;DHT22;3699;51.462;6.696;2023-03-07T13:00:40;5.60;99.90
7317;DHT22;3699;51.462;6.696;2023-03-07T13:03:14;5.70;99.90
7317;DHT22;3699;51.462;6.696;2023-03-07T13:05:42;5.70;99.90
7317;DHT22;3699;51.462;6.696;2023-03-07T13:08:17;5.80;99.90
7317;DHT22;3699;51.462;6.696;2023-03-07T13:10:45;5.80;99.90
7317;DHT22;3699;51.462;6.696;2023-03-07T13:13:49;5.90;99.90
7317;DHT22;3699;51.462;6.696;2023-03-07T13:16:38;5.90;99.90
7317;DHT22;3699;51.462;6.696;2023-03-07T13:25:42;6.00;99.90
7317;DHT22;3699;51.462;6.696;2023-03-07T13:28:33;6.00;99.90
7317;DHT22;3699;51.462;6.696;2023-03-07T13:36:58;6.00;99.90
7317;DHT22;3699;51.462;6.696;2023-03-07T13:39:36;6.00;99.90
7317;DHT22;3699;51.462;6.696;2023-03-07T13:42:03;6.10;99.90
7317;DHT22;3699;51.462;6.696;2023-03-07T13:44:37;6.10;99.90
7317;DHT22;3699;51.462;6.696;2023-03-07T13:47:39;6.00;99.90
7317;DHT22;3699;51.462;6.696;2023-03-07T13:50:36;6.00;99.90
7317;DHT22;3699;51.462;6.696;2023-03-07T13:53:10;5.90;99.90
7317;DHT22;3699;51.462;6.696;2023-03-07T13:55:41;6.00;99.90
7317;DHT22;3699;51.462;6.696;2023-03-07T13:58:21;5.90;99.90
7317;DHT22;3699;51.462;6.696;2023-03-07T14:00:54;5.90;99.90
7317;DHT22;3699;51.462;6.696;2023-03-07T14:03:28;5.80;99.90
7317;DHT22;3699;51.462;6.696;2023-03-07T14:05:59;5.70;99.90
7317;DHT22;3699;51.462;6.696;2023-03-07T14:08:28;5.70;99.90
7317;DHT22;3699;51.462;6.696;2023-03-07T14:10:58;5.70;99.90
7317;DHT22;3699;51.462;6.696;2023-03-07T14:14:05;5.60;99.90
7317;DHT22;3699;51.462;6.696;2023-03-07T14:16:47;5.50;99.90
7317;DHT22;3699;51.462;6.696;2023-03-07T14:19:36;5.50;99.90
7317;DHT22;3699;51.462;6.696;2023-03-07T14:22:11;5.50;99.90
7317;DHT22;3699;51.462;6.696;2023-03-07T14:24:54;5.40;99.90
7317;DHT22;3699;51.462;6.696;2023-03-07T14:27:23;5.40;99.90
7317;DHT22;3699;51.462;6.696;2023-03-07T14:29:51;5.40;99.90
7317;DHT22;3699;51.462;6.696;2023-03-07T14:32:24;5.40;99.90
7317;DHT22;3699;51.462;6.696;2023-03-07T14:34:53;5.40;99.90
7317;DHT22;3699;51.462;6.696;2023-03-07T14:37:22;5.40;99.90
7317;DHT22;3699;51.462;6.696;2023-03-07T14:42:48;5.40;99.90
7317;DHT22;3699;51.462;6.696;2023-03-07T14:45:21;5.40;99.90
7317;DHT22;3699;51.462;6.696;2023-03-07T14:48:17;5.30;99.90
7317;DHT22;3699;51.462;6.696;2023-03-07T14:50:50;5.40;99.90
7317;DHT22;3699;51.462;6.696;2023-03-07T14:53:20;5.40;99.90
7317;DHT22;3699;51.462;6.696;2023-03-07T14:55:49;5.40;99.90
7317;DHT22;3699;51.462;6.696;2023-03-07T14:58:18;5.40;99.90
7317;DHT22;3699;51.462;6.696;2023-03-07T15:00:45;5.40;99.90
7317;DHT22;3699;51.462;6.696;2023-03-07T15:03:22;5.40;99.90
7317;DHT22;3699;51.462;6.696;2023-03-07T15:05:52;5.40;99.90
7317;DHT22;3699;51.462;6.696;2023-03-07T15:08:22;5.40;99.90
7317;DHT22;3699;51.462;6.696;2023-03-07T15:10:54;5.50;99.90
7317;DHT22;3699;51.462;6.696;2023-03-07T15:13:24;5.50;99.90
7317;DHT22;3699;51.462;6.696;2023-03-07T15:15:55;5.50;99.90
7317;DHT22;3699;51.462;6.696;2023-03-07T15:18:26;5.50;99.90
7317;DHT22;3699;51.462;6.696;2023-03-07T15:20:57;5.40;99.90
7317;DHT22;3699;51.462;6.696;2023-03-07T15:23:26;5.40;99.90
7317;DHT22;3699;51.462;6.696;2023-03-07T15:25:59;5.40;99.90
7317;DHT22;3699;51.462;6.696;2023-03-07T15:28:31;5.40;99.90
7317;DHT22;3699;51.462;6.696;2023-03-07T15:30:58;5.40;99.90
7317;DHT22;3699;51.462;6.696;2023-03-07T15:33:27;5.40;99.90
7317;DHT22;3699;51.462;6.696;2023-03-07T15:36:21;5.30;99.90
7317;DHT22;3699;51.462;6.696;2023-03-07T15:38:51;5.30;99.90
7317;DHT22;3699;51.462;6.696;2023-03-07T15:41:29;5.30;99.90
7317;DHT22;3699;51.462;6.696;2023-03-07T15:44:18;5.30;99.90
7317;DHT22;3699;51.462;6.696;2023-03-07T15:46:48;5.30;99.90
7317;DHT22;3699;51.462;6.696;2023-03-07T15:49:24;5.20;99.90
7317;DHT22;3699;51.462;6.696;2023-03-07T15:51:55;5.20;99.90
7317;DHT22;3699;51.462;6.696;2023-03-07T15:54:34;5.20;99.90
7317;DHT22;3699;51.462;6.696;2023-03-07T15:57:05;5.10;99.90
7317;DHT22;3699;51.462;6.696;2023-03-07T15:59:35;5.00;99.90
7317;DHT22;3699;51.462;6.696;2023-03-07T16:02:37;5.00;99.90
7317;DHT22;3699;51.462;6.696;2023-03-07T16:05:06;5.00;99.90
7317;DHT22;3699;51.462;6.696;2023-03-07T16:07:55;4.90;99.90
7317;DHT22;3699;51.462;6.696;2023-03-07T16:10:25;4.90;99.90
7317;DHT22;3699;51.462;6.696;2023-03-07T16:12:53;4.80;99.90
7317;DHT22;3699;51.462;6.696;2023-03-07T16:15:22;4.70;99.90
7317;DHT22;3699;51.462;6.696;2023-03-07T16:17:51;4.70;99.90
7317;DHT22;3699;51.462;6.696;2023-03-07T16:20:22;4.70;99.90
7317;DHT22;3699;51.462;6.696;2023-03-07T16:22:50;4.50;99.90
7317;DHT22;3699;51.462;6.696;2023-03-07T16:25:19;4.40;99.90
7317;DHT22;3699;51.462;6.696;2023-03-07T16:27:49;4.30;99.90
7317;DHT22;3699;51.462;6.696;2023-03-07T16:32:45;4.00;99.90
7317;DHT22;3699;51.462;6.696;2023-03-07T16:35:16;4.00;99.90
7317;DHT22;3699;51.462;6.696;2023-03-07T16:37:44;4.00;99.90
7317;DHT22;3699;51.462;6.696;2023-03-07T16:40:12;4.00;99.90
7317;DHT22;3699;51.462;6.696;2023-03-07T16:42:43;4.00;99.90
7317;DHT22;3699;51.462;6.696;2023-03-07T16:45:16;4.00;99.90
7317;DHT22;3699;51.462;6.696;2023-03-07T16:47:44;4.00;99.90
7317;DHT22;3699;51.462;6.696;2023-03-07T16:50:13;4.00;99.90
7317;DHT22;3699;51.462;6.696;2023-03-07T16:52:40;4.00;99.90
7317;DHT22;3699;51.462;6.696;2023-03-07T16:55:10;3.90;99.90
7317;DHT22;3699;51.462;6.696;2023-03-07T17:00:07;3.80;99.90
7317;DHT22;3699;51.462;6.696;2023-03-07T17:02:37;4.00;99.90
7317;DHT22;3699;51.462;6.696;2023-03-07T17:05:05;3.80;99.90
7317;DHT22;3699;51.462;6.696;2023-03-07T17:07:32;3.80;99.90